sensor_id;sensor_type;location;lat;lon;timestamp;pressure;altitude;pressure_sealevel;temperature;humidity
72336;BME280;65062;48.446;8.834;2023-07-28T00:00:51;96909.66;;;14.07;100.00
72336;BME280;65062;48.446;8.834;2023-07-28T00:03:51;96912.16;;;14.02;100.00
72336;BME280;65062;48.446;8.834;2023-07-28T00:06:52;96904.97;;;14.09;100.00
72336;BME280;65062;48.446;8.834;2023-07-28T00:09:52;96906.19;;;13.95;100.00
72336;BME280;65062;48.446;8.834;2023-07-28T00:12:53;96904.19;;;13.91;100.00
72336;BME280;65062;48.446;8.834;2023-07-28T00:15:53;96906.03;;;13.90;100.00
72336;BME280;65062;48.446;8.834;2023-07-28T00:18:54;96911.00;;;13.80;100.00
72336;BME280;65062;48.446;8.834;2023-07-28T00:21:54;96905.53;;;13.82;100.00
72336;BME280;65062;48.446;8.834;2023-07-28T00:24:56;96906.91;;;13.84;100.00
72336;BME280;65062;48.446;8.834;2023-07-28T00:27:56;96910.91;;;13.87;100.00
72336;BME280;65062;48.446;8.834;2023-07-28T00:30:57;96916.53;;;13.90;100.00
72336;BME280;65062;48.446;8.834;2023-07-28T00:33:57;96922.47;;;13.86;100.00
72336;BME280;65062;48.446;8.834;2023-07-28T00:36:57;96923.00;;;13.76;100.00
72336;BME280;65062;48.446;8.834;2023-07-28T00:39:58;96918.50;;;13.77;100.00
72336;BME280;65062;48.446;8.834;2023-07-28T00:42:58;96922.16;;;13.76;100.00
72336;BME280;65062;48.446;8.834;2023-07-28T00:45:59;96913.47;;;13.75;100.00
72336;BME280;65062;48.446;8.834;2023-07-28T00:48:59;96922.00;;;13.71;100.00
72336;BME280;65062;48.446;8.834;2023-07-28T00:52:02;96926.31;;;13.65;100.00
72336;BME280;65062;48.446;8.834;2023-07-28T00:55:02;96916.25;;;13.62;100.00
72336;BME280;65062;48.446;8.834;2023-07-28T00:58:03;96922.66;;;13.66;100.00
72336;BME280;65062;48.446;8.834;2023-07-28T01:01:03;96918.31;;;13.60;100.00
72336;BME280;65062;48.446;8.834;2023-07-28T01:04:04;96922.03;;;13.53;100.00
72336;BME280;65062;48.446;8.834;2023-07-28T01:07:10;96922.59;;;13.55;100.00
72336;BME280;65062;48.446;8.834;2023-07-28T01:10:18;96917.94;;;13.57;100.00
72336;BME280;65062;48.446;8.834;2023-07-28T01:13:21;96920.03;;;13.48;100.00
72336;BME280;65062;48.446;8.834;2023-07-28T01:16:22;96920.59;;;13.50;100.00
72336;BME280;65062;48.446;8.834;2023-07-28T01:19:23;96916.38;;;13.49;100.00
72336;BME280;65062;48.446;8.834;2023-07-28T01:25:55;96910.69;;;13.52;100.00
72336;BME280;65062;48.446;8.834;2023-07-28T01:29:00;96903.84;;;13.51;100.00
72336;BME280;65062;48.446;8.834;2023-07-28T01:32:01;96894.97;;;13.46;100.00
72336;BME280;65062;48.446;8.834;2023-07-28T01:35:03;96887.31;;;13.44;100.00
72336;BME280;65062;48.446;8.834;2023-07-28T01:38:03;96888.53;;;13.42;100.00
72336;BME280;65062;48.446;8.834;2023-07-28T01:41:04;96886.56;;;13.37;100.00
72336;BME280;65062;48.446;8.834;2023-07-28T01:44:04;96894.84;;;13.41;100.00
72336;BME280;65062;48.446;8.834;2023-07-28T01:47:05;96882.84;;;13.45;100.00
72336;BME280;65062;48.446;8.834;2023-07-28T01:50:06;96890.16;;;13.43;100.00
72336;BME280;65062;48.446;8.834;2023-07-28T01:53:07;96894.31;;;13.32;100.00
72336;BME280;65062;48.446;8.834;2023-07-28T01:56:07;96883.00;;;13.32;100.00
72336;BME280;65062;48.446;8.834;2023-07-28T01:59:08;96897.59;;;13.28;100.00
72336;BME280;65062;48.446;8.834;2023-07-28T02:02:08;96888.16;;;13.20;100.00
72336;BME280;65062;48.446;8.834;2023-07-28T02:05:09;96897.63;;;13.21;100.00
72336;BME280;65062;48.446;8.834;2023-07-28T02:08:09;96898.06;;;13.18;100.00
72336;BME280;65062;48.446;8.834;2023-07-28T02:11:10;96893.97;;;13.22;100.00
72336;BME280;65062;48.446;8.834;2023-07-28T02:14:10;96889.72;;;13.28;100.00
72336;BME280;65062;48.446;8.834;2023-07-28T02:17:10;96889.94;;;13.26;100.00
72336;BME280;65062;48.446;8.834;2023-07-28T02:20:11;96892.84;;;13.36;100.00
72336;BME280;65062;48.446;8.834;2023-07-28T02:23:12;96891.53;;;13.27;100.00
72336;BME280;65062;48.446;8.834;2023-07-28T02:26:14;96884.13;;;13.18;100.00
72336;BME280;65062;48.446;8.834;2023-07-28T02:29:14;96887.63;;;13.12;100.00
72336;BME280;65062;48.446;8.834;2023-07-28T02:32:14;96896.94;;;13.08;100.00
72336;BME280;65062;48.446;8.834;2023-07-28T02:35:15;96890.25;;;13.12;100.00
72336;BME280;65062;48.446;8.834;2023-07-28T02:38:15;96895.72;;;13.10;100.00
72336;BME280;65062;48.446;8.834;2023-07-28T02:41:15;96905.22;;;13.11;100.00
72336;BME280;65062;48.446;8.834;2023-07-28T02:44:16;96908.09;;;13.03;100.00
72336;BME280;65062;48.446;8.834;2023-07-28T02:47:16;96922.47;;;13.01;100.00
72336;BME280;65062;48.446;8.834;2023-07-28T02:50:17;96920.44;;;12.96;100.00
72336;BME280;65062;48.446;8.834;2023-07-28T02:53:17;96924.31;;;12.94;100.00
72336;BME280;65062;48.446;8.834;2023-07-28T02:56:18;96922.25;;;12.96;100.00
72336;BME280;65062;48.446;8.834;2023-07-28T02:59:21;96922.25;;;12.96;100.00
72336;BME280;65062;48.446;8.834;2023-07-28T03:02:23;96910.91;;;13.08;100.00
72336;BME280;65062;48.446;8.834;2023-07-28T03:05:23;96921.00;;;13.05;100.00
72336;BME280;65062;48.446;8.834;2023-07-28T03:08:24;96928.31;;;13.03;100.00
72336;BME280;65062;48.446;8.834;2023-07-28T03:11:24;96924.47;;;12.99;100.00
72336;BME280;65062;48.446;8.834;2023-07-28T03:14:24;96928.63;;;12.88;100.00
72336;BME280;65062;48.446;8.834;2023-07-28T03:17:25;96941.53;;;12.90;100.00
72336;BME280;65062;48.446;8.834;2023-07-28T03:20:25;96944.59;;;12.87;100.00
72336;BME280;65062;48.446;8.834;2023-07-28T03:23:26;96937.47;;;12.87;100.00
72336;BME280;65062;48.446;8.834;2023-07-28T03:26:26;96949.84;;;12.87;100.00
72336;BME280;65062;48.446;8.834;2023-07-28T03:29:27;96954.06;;;12.88;100.00
72336;BME280;65062;48.446;8.834;2023-07-28T03:32:27;96950.28;;;12.77;100.00
72336;BME280;65062;48.446;8.834;2023-07-28T03:35:27;96940.81;;;12.76;100.00
72336;BME280;65062;48.446;8.834;2023-07-28T03:38:28;96942.84;;;12.74;100.00
72336;BME280;65062;48.446;8.834;2023-07-28T03:41:28;96937.59;;;12.74;100.00
72336;BME280;65062;48.446;8.834;2023-07-28T03:44:29;96947.84;;;12.82;100.00
72336;BME280;65062;48.446;8.834;2023-07-28T03:47:29;96941.22;;;12.73;100.00
72336;BME280;65062;48.446;8.834;2023-07-28T03:50:29;96942.84;;;12.74;100.00
72336;BME280;65062;48.446;8.834;2023-07-28T03:53:30;96950.47;;;12.82;100.00
72336;BME280;65062;48.446;8.834;2023-07-28T03:56:30;96950.72;;;12.74;100.00
72336;BME280;65062;48.446;8.834;2023-07-28T03:59:31;96954.31;;;12.80;100.00
72336;BME280;65062;48.446;8.834;2023-07-28T04:02:31;96950.47;;;12.82;100.00
72336;BME280;65062;48.446;8.834;2023-07-28T04:05:31;96948.19;;;12.86;100.00
72336;BME280;65062;48.446;8.834;2023-07-28T04:08:32;96944.38;;;12.88;100.00
72336;BME280;65062;48.446;8.834;2023-07-28T04:11:32;96955.59;;;13.02;100.00
72336;BME280;65062;48.446;8.834;2023-07-28T04:14:33;96955.78;;;13.07;100.00
72336;BME280;65062;48.446;8.834;2023-07-28T04:17:33;96947.03;;;13.13;100.00
72336;BME280;65062;48.446;8.834;2023-07-28T04:20:33;96947.75;;;13.26;100.00
72336;BME280;65062;48.446;8.834;2023-07-28T04:23:34;96943.81;;;13.35;100.00
72336;BME280;65062;48.446;8.834;2023-07-28T04:26:34;96940.31;;;13.41;100.00
72336;BME280;65062;48.446;8.834;2023-07-28T04:29:35;96938.09;;;13.63;100.00
72336;BME280;65062;48.446;8.834;2023-07-28T04:32:35;96940.81;;;13.74;100.00
72336;BME280;65062;48.446;8.834;2023-07-28T04:35:35;96930.22;;;13.81;100.00
72336;BME280;65062;48.446;8.834;2023-07-28T04:38:36;96921.22;;;13.88;99.90
72336;BME280;65062;48.446;8.834;2023-07-28T04:41:36;96916.75;;;13.89;99.55
72336;BME280;65062;48.446;8.834;2023-07-28T04:44:40;96910.34;;;14.03;98.89
72336;BME280;65062;48.446;8.834;2023-07-28T04:47:40;96912.16;;;14.02;98.46
72336;BME280;65062;48.446;8.834;2023-07-28T04:50:41;96918.28;;;14.14;99.09
72336;BME280;65062;48.446;8.834;2023-07-28T04:53:41;96924.78;;;14.30;98.26
72336;BME280;65062;48.446;8.834;2023-07-28T04:56:42;96920.00;;;14.38;97.21
72336;BME280;65062;48.446;8.834;2023-07-28T04:59:42;96930.25;;;14.46;95.85
72336;BME280;65062;48.446;8.834;2023-07-28T05:02:43;96927.44;;;14.59;96.02
72336;BME280;65062;48.446;8.834;2023-07-28T05:05:43;96930.78;;;14.66;94.76
72336;BME280;65062;48.446;8.834;2023-07-28T05:08:44;96926.19;;;14.73;95.14
72336;BME280;65062;48.446;8.834;2023-07-28T05:11:44;96923.19;;;14.88;95.19
72336;BME280;65062;48.446;8.834;2023-07-28T05:14:45;96931.56;;;14.97;93.00
72336;BME280;65062;48.446;8.834;2023-07-28T05:17:45;96933.81;;;14.93;92.74
72336;BME280;65062;48.446;8.834;2023-07-28T05:20:46;96937.81;;;14.96;94.46
72336;BME280;65062;48.446;8.834;2023-07-28T05:23:46;96936.38;;;15.00;94.18
72336;BME280;65062;48.446;8.834;2023-07-28T05:26:46;96936.59;;;14.98;94.87
72336;BME280;65062;48.446;8.834;2023-07-28T05:29:47;96935.56;;;14.99;93.92
72336;BME280;65062;48.446;8.834;2023-07-28T05:32:47;96933.06;;;15.04;94.22
72336;BME280;65062;48.446;8.834;2023-07-28T05:35:48;96943.81;;;15.03;95.20
72336;BME280;65062;48.446;8.834;2023-07-28T05:38:48;96940.16;;;15.15;94.95
72336;BME280;65062;48.446;8.834;2023-07-28T05:41:49;96938.00;;;15.24;94.47
72336;BME280;65062;48.446;8.834;2023-07-28T05:44:50;96945.13;;;15.35;93.72
72336;BME280;65062;48.446;8.834;2023-07-28T05:47:52;96949.03;;;15.32;92.73
72336;BME280;65062;48.446;8.834;2023-07-28T05:50:52;96942.25;;;15.36;92.20
72336;BME280;65062;48.446;8.834;2023-07-28T05:53:54;96947.13;;;15.39;92.64
72336;BME280;65062;48.446;8.834;2023-07-28T05:56:54;96951.56;;;15.50;93.13
72336;BME280;65062;48.446;8.834;2023-07-28T05:59:55;96957.19;;;15.54;92.82
72336;BME280;65062;48.446;8.834;2023-07-28T06:02:56;96953.66;;;15.60;94.05
72336;BME280;65062;48.446;8.834;2023-07-28T06:05:56;96961.31;;;15.73;93.22
72336;BME280;65062;48.446;8.834;2023-07-28T06:08:57;96959.59;;;15.90;91.16
72336;BME280;65062;48.446;8.834;2023-07-28T06:11:57;96969.19;;;16.07;91.93
72336;BME280;65062;48.446;8.834;2023-07-28T06:14:58;96966.16;;;16.38;91.18
72336;BME280;65062;48.446;8.834;2023-07-28T06:17:58;96974.97;;;16.55;90.24
72336;BME280;65062;48.446;8.834;2023-07-28T06:20:58;96978.47;;;16.73;89.88
72336;BME280;65062;48.446;8.834;2023-07-28T06:23:59;96978.41;;;16.84;88.96
72336;BME280;65062;48.446;8.834;2023-07-28T06:27:00;96984.91;;;16.93;88.57
72336;BME280;65062;48.446;8.834;2023-07-28T06:30:00;96990.06;;;17.00;89.41
72336;BME280;65062;48.446;8.834;2023-07-28T06:33:01;96988.97;;;17.12;87.73
72336;BME280;65062;48.446;8.834;2023-07-28T06:36:04;97002.88;;;17.08;88.74
72336;BME280;65062;48.446;8.834;2023-07-28T06:39:04;97002.22;;;17.29;88.68
72336;BME280;65062;48.446;8.834;2023-07-28T06:42:05;97004.72;;;17.52;88.03
72336;BME280;65062;48.446;8.834;2023-07-28T06:45:06;97010.59;;;17.70;86.90
72336;BME280;65062;48.446;8.834;2023-07-28T06:48:06;97005.19;;;17.98;85.34
72336;BME280;65062;48.446;8.834;2023-07-28T06:51:07;97011.25;;;18.15;84.22
72336;BME280;65062;48.446;8.834;2023-07-28T06:54:07;97013.03;;;18.31;84.21
72336;BME280;65062;48.446;8.834;2023-07-28T06:57:12;97002.69;;;18.46;83.25
72336;BME280;65062;48.446;8.834;2023-07-28T07:00:13;97007.66;;;18.43;82.87
72336;BME280;65062;48.446;8.834;2023-07-28T07:03:14;97013.97;;;18.58;83.88
72336;BME280;65062;48.446;8.834;2023-07-28T07:06:15;97019.00;;;18.60;83.65
72336;BME280;65062;48.446;8.834;2023-07-28T07:09:15;97011.22;;;18.75;84.48
72336;BME280;65062;48.446;8.834;2023-07-28T07:12:15;97008.75;;;18.90;83.03
72336;BME280;65062;48.446;8.834;2023-07-28T07:15:16;97007.84;;;19.06;83.38
72336;BME280;65062;48.446;8.834;2023-07-28T07:18:16;97018.31;;;19.18;83.01
72336;BME280;65062;48.446;8.834;2023-07-28T07:21:17;97020.88;;;19.34;81.28
72336;BME280;65062;48.446;8.834;2023-07-28T07:24:17;97012.97;;;19.39;82.29
72336;BME280;65062;48.446;8.834;2023-07-28T07:27:17;97016.94;;;19.68;80.00
72336;BME280;65062;48.446;8.834;2023-07-28T07:30:18;97023.19;;;19.89;79.81
72336;BME280;65062;48.446;8.834;2023-07-28T07:33:18;97024.47;;;20.18;78.35
72336;BME280;65062;48.446;8.834;2023-07-28T07:36:19;97024.53;;;20.28;78.82
72336;BME280;65062;48.446;8.834;2023-07-28T07:39:19;97024.13;;;20.51;77.21
72336;BME280;65062;48.446;8.834;2023-07-28T07:42:20;97026.66;;;20.88;77.19
72336;BME280;65062;48.446;8.834;2023-07-28T07:45:20;97032.34;;;21.21;76.32
72336;BME280;65062;48.446;8.834;2023-07-28T07:48:20;97024.38;;;21.31;77.44
72336;BME280;65062;48.446;8.834;2023-07-28T07:51:21;97015.88;;;21.59;74.30
72336;BME280;65062;48.446;8.834;2023-07-28T07:54:21;97032.41;;;21.71;74.11
72336;BME280;65062;48.446;8.834;2023-07-28T07:57:22;97030.28;;;21.88;72.40
72336;BME280;65062;48.446;8.834;2023-07-28T08:00:22;97035.56;;;22.13;71.50
72336;BME280;65062;48.446;8.834;2023-07-28T08:03:24;97036.63;;;22.27;69.76
72336;BME280;65062;48.446;8.834;2023-07-28T08:06:24;97040.41;;;22.11;68.56
72336;BME280;65062;48.446;8.834;2023-07-28T08:09:25;97039.84;;;22.24;66.42
72336;BME280;65062;48.446;8.834;2023-07-28T08:12:26;97037.38;;;22.43;65.69
72336;BME280;65062;48.446;8.834;2023-07-28T08:15:26;97044.56;;;22.57;67.14
72336;BME280;65062;48.446;8.834;2023-07-28T08:18:26;97037.13;;;22.44;63.54
72336;BME280;65062;48.446;8.834;2023-07-28T08:21:27;97037.06;;;22.70;64.16
72336;BME280;65062;48.446;8.834;2023-07-28T08:24:27;97033.59;;;23.28;66.25
72336;BME280;65062;48.446;8.834;2023-07-28T08:27:28;97040.72;;;23.76;63.67
72336;BME280;65062;48.446;8.834;2023-07-28T08:30:28;97035.72;;;24.03;60.64
72336;BME280;65062;48.446;8.834;2023-07-28T08:33:29;97046.50;;;24.21;60.37
72336;BME280;65062;48.446;8.834;2023-07-28T08:36:29;97040.31;;;24.49;59.46
72336;BME280;65062;48.446;8.834;2023-07-28T08:39:29;97043.81;;;24.50;58.79
72336;BME280;65062;48.446;8.834;2023-07-28T08:42:33;97047.53;;;24.49;58.75
72336;BME280;65062;48.446;8.834;2023-07-28T08:45:35;97053.25;;;24.14;58.16
72336;BME280;65062;48.446;8.834;2023-07-28T08:48:36;97052.31;;;24.28;58.96
72336;BME280;65062;48.446;8.834;2023-07-28T08:51:41;97052.28;;;24.33;57.74
72336;BME280;65062;48.446;8.834;2023-07-28T08:54:42;97045.19;;;24.71;56.22
72336;BME280;65062;48.446;8.834;2023-07-28T08:57:42;97051.72;;;25.07;56.32
72336;BME280;65062;48.446;8.834;2023-07-28T09:00:43;97054.09;;;25.27;56.08
72336;BME280;65062;48.446;8.834;2023-07-28T09:03:44;97049.19;;;25.71;54.99
72336;BME280;65062;48.446;8.834;2023-07-28T09:06:45;97049.13;;;25.76;54.06
72336;BME280;65062;48.446;8.834;2023-07-28T09:09:46;97044.88;;;25.89;53.55
72336;BME280;65062;48.446;8.834;2023-07-28T09:12:47;97048.38;;;25.71;54.68
72336;BME280;65062;48.446;8.834;2023-07-28T09:15:48;97044.25;;;25.78;52.29
72336;BME280;65062;48.446;8.834;2023-07-28T09:18:50;97046.16;;;25.91;53.13
72336;BME280;65062;48.446;8.834;2023-07-28T09:22:00;97047.50;;;25.94;52.45
72336;BME280;65062;48.446;8.834;2023-07-28T09:25:11;97030.00;;;25.96;54.38
72336;BME280;65062;48.446;8.834;2023-07-28T09:28:12;97042.19;;;26.07;51.55
72336;BME280;65062;48.446;8.834;2023-07-28T09:31:13;97034.72;;;26.64;51.11
72336;BME280;65062;48.446;8.834;2023-07-28T09:34:24;97036.66;;;26.44;49.07
72336;BME280;65062;48.446;8.834;2023-07-28T09:37:26;97038.69;;;26.80;49.06
72336;BME280;65062;48.446;8.834;2023-07-28T09:40:26;97036.13;;;26.75;49.04
72336;BME280;65062;48.446;8.834;2023-07-28T09:43:27;97041.69;;;26.65;50.09
72336;BME280;65062;48.446;8.834;2023-07-28T09:46:33;97043.66;;;27.00;47.93
72336;BME280;65062;48.446;8.834;2023-07-28T09:49:35;97043.47;;;26.56;49.98
72336;BME280;65062;48.446;8.834;2023-07-28T09:52:42;97039.31;;;26.63;50.25
72336;BME280;65062;48.446;8.834;2023-07-28T09:55:44;97039.78;;;26.79;49.15
72336;BME280;65062;48.446;8.834;2023-07-28T09:58:50;97031.22;;;27.04;48.94
72336;BME280;65062;48.446;8.834;2023-07-28T10:01:51;97049.00;;;27.27;47.72
72336;BME280;65062;48.446;8.834;2023-07-28T10:04:52;97037.13;;;26.79;47.33
72336;BME280;65062;48.446;8.834;2023-07-28T10:07:53;97050.75;;;26.69;45.18
72336;BME280;65062;48.446;8.834;2023-07-28T10:10:54;97058.16;;;27.39;47.84
72336;BME280;65062;48.446;8.834;2023-07-28T10:13:55;97050.50;;;27.19;45.69
72336;BME280;65062;48.446;8.834;2023-07-28T10:16:56;97050.75;;;26.82;47.77
72336;BME280;65062;48.446;8.834;2023-07-28T10:19:57;97058.38;;;26.89;49.24
72336;BME280;65062;48.446;8.834;2023-07-28T10:23:14;97056.19;;;27.18;48.55
72336;BME280;65062;48.446;8.834;2023-07-28T10:26:31;97061.94;;;27.38;47.10
72336;BME280;65062;48.446;8.834;2023-07-28T10:29:37;97061.28;;;27.55;48.61
72336;BME280;65062;48.446;8.834;2023-07-28T10:32:43;97060.84;;;27.97;45.82
72336;BME280;65062;48.446;8.834;2023-07-28T10:35:47;97055.41;;;27.04;47.42
72336;BME280;65062;48.446;8.834;2023-07-28T10:42:07;97082.41;;;26.39;46.00
72336;BME280;65062;48.446;8.834;2023-07-28T10:45:08;97083.41;;;25.93;45.88
72336;BME280;65062;48.446;8.834;2023-07-28T10:48:09;97088.09;;;25.32;48.09
72336;BME280;65062;48.446;8.834;2023-07-28T10:51:11;97105.53;;;25.29;49.28
72336;BME280;65062;48.446;8.834;2023-07-28T10:54:12;97098.94;;;24.46;51.61
72336;BME280;65062;48.446;8.834;2023-07-28T10:57:16;97094.91;;;24.20;54.98
72336;BME280;65062;48.446;8.834;2023-07-28T11:00:22;97094.31;;;23.99;59.35
72336;BME280;65062;48.446;8.834;2023-07-28T11:03:23;97089.22;;;23.98;59.38
72336;BME280;65062;48.446;8.834;2023-07-28T11:06:23;97090.88;;;24.22;58.25
72336;BME280;65062;48.446;8.834;2023-07-28T11:09:24;97091.63;;;24.56;58.55
72336;BME280;65062;48.446;8.834;2023-07-28T11:12:24;97088.97;;;25.04;57.74
72336;BME280;65062;48.446;8.834;2023-07-28T11:15:26;97087.91;;;25.23;58.30
72336;BME280;65062;48.446;8.834;2023-07-28T11:18:26;97088.81;;;25.37;58.53
72336;BME280;65062;48.446;8.834;2023-07-28T11:21:26;97084.41;;;25.46;58.89
72336;BME280;65062;48.446;8.834;2023-07-28T11:24:27;97076.50;;;25.73;56.96
72336;BME280;65062;48.446;8.834;2023-07-28T11:27:27;97073.97;;;25.82;55.05
72336;BME280;65062;48.446;8.834;2023-07-28T11:30:28;97082.81;;;26.46;52.99
72336;BME280;65062;48.446;8.834;2023-07-28T11:33:29;97079.38;;;27.27;51.87
72336;BME280;65062;48.446;8.834;2023-07-28T11:36:30;97076.69;;;27.98;47.07
72336;BME280;65062;48.446;8.834;2023-07-28T11:39:31;97085.09;;;28.27;44.65
72336;BME280;65062;48.446;8.834;2023-07-28T11:42:35;97079.59;;;28.32;44.91
72336;BME280;65062;48.446;8.834;2023-07-28T11:45:36;97085.75;;;28.33;45.29
72336;BME280;65062;48.446;8.834;2023-07-28T11:48:36;97078.94;;;28.05;44.11
72336;BME280;65062;48.446;8.834;2023-07-28T11:51:38;97072.25;;;27.45;45.86
72336;BME280;65062;48.446;8.834;2023-07-28T11:54:40;97069.41;;;27.41;47.77
72336;BME280;65062;48.446;8.834;2023-07-28T11:57:40;97075.91;;;27.62;47.44
72336;BME280;65062;48.446;8.834;2023-07-28T12:00:40;97076.06;;;27.44;47.08
72336;BME280;65062;48.446;8.834;2023-07-28T12:03:42;97075.22;;;26.81;46.88
72336;BME280;65062;48.446;8.834;2023-07-28T12:10:07;97073.56;;;26.39;48.39
72336;BME280;65062;48.446;8.834;2023-07-28T12:13:09;97073.06;;;26.50;48.91
72336;BME280;65062;48.446;8.834;2023-07-28T12:16:47;97058.16;;;27.12;47.87
72336;BME280;65062;48.446;8.834;2023-07-28T12:20:07;97070.75;;;26.90;47.15
72336;BME280;65062;48.446;8.834;2023-07-28T12:23:10;97078.69;;;26.95;46.74
72336;BME280;65062;48.446;8.834;2023-07-28T12:26:10;97076.19;;;27.12;47.60
72336;BME280;65062;48.446;8.834;2023-07-28T12:29:11;97077.09;;;26.21;48.66
72336;BME280;65062;48.446;8.834;2023-07-28T12:32:11;97075.94;;;25.76;47.60
72336;BME280;65062;48.446;8.834;2023-07-28T12:35:12;97077.94;;;25.47;48.79
72336;BME280;65062;48.446;8.834;2023-07-28T12:38:13;97076.38;;;25.65;49.77
72336;BME280;65062;48.446;8.834;2023-07-28T12:41:13;97089.91;;;25.55;50.47
72336;BME280;65062;48.446;8.834;2023-07-28T12:44:14;97090.41;;;24.96;50.66
72336;BME280;65062;48.446;8.834;2023-07-28T12:47:14;97085.00;;;25.01;51.94
72336;BME280;65062;48.446;8.834;2023-07-28T12:50:14;97082.41;;;25.15;51.64
72336;BME280;65062;48.446;8.834;2023-07-28T12:53:16;97093.81;;;25.02;51.82
72336;BME280;65062;48.446;8.834;2023-07-28T12:56:16;97101.63;;;24.75;51.52
72336;BME280;65062;48.446;8.834;2023-07-28T12:59:16;97097.53;;;24.53;53.29
72336;BME280;65062;48.446;8.834;2023-07-28T13:02:17;97105.16;;;24.13;52.04
72336;BME280;65062;48.446;8.834;2023-07-28T13:05:18;97093.13;;;24.39;53.15
72336;BME280;65062;48.446;8.834;2023-07-28T13:08:18;97095.09;;;24.28;52.32
72336;BME280;65062;48.446;8.834;2023-07-28T13:11:19;97100.00;;;24.21;53.25
72336;BME280;65062;48.446;8.834;2023-07-28T13:14:19;97111.34;;;24.08;53.23
72336;BME280;65062;48.446;8.834;2023-07-28T13:17:19;97106.75;;;24.14;54.17
72336;BME280;65062;48.446;8.834;2023-07-28T13:20:20;97117.16;;;24.15;52.00
72336;BME280;65062;48.446;8.834;2023-07-28T13:23:21;97121.78;;;24.05;52.23
72336;BME280;65062;48.446;8.834;2023-07-28T13:26:21;97125.16;;;23.77;52.17
72336;BME280;65062;48.446;8.834;2023-07-28T13:29:22;97128.09;;;23.80;54.38
72336;BME280;65062;48.446;8.834;2023-07-28T13:32:24;97119.63;;;23.68;51.29
72336;BME280;65062;48.446;8.834;2023-07-28T13:35:25;97120.06;;;23.80;50.58
72336;BME280;65062;48.446;8.834;2023-07-28T13:38:25;97135.31;;;23.80;50.17
72336;BME280;65062;48.446;8.834;2023-07-28T13:41:26;97119.63;;;23.68;49.29
72336;BME280;65062;48.446;8.834;2023-07-28T13:44:26;97103.63;;;23.63;49.65
72336;BME280;65062;48.446;8.834;2023-07-28T13:47:26;97098.44;;;23.38;51.39
72336;BME280;65062;48.446;8.834;2023-07-28T13:50:27;97085.69;;;23.15;52.46
72336;BME280;65062;48.446;8.834;2023-07-28T13:53:27;97066.97;;;23.30;53.33
72336;BME280;65062;48.446;8.834;2023-07-28T13:56:28;97058.16;;;23.30;52.98
72336;BME280;65062;48.446;8.834;2023-07-28T13:59:28;97086.94;;;23.43;54.43
72336;BME280;65062;48.446;8.834;2023-07-28T14:02:29;97101.25;;;23.62;53.53
72336;BME280;65062;48.446;8.834;2023-07-28T14:05:29;97096.16;;;24.56;51.59
72336;BME280;65062;48.446;8.834;2023-07-28T14:08:30;97071.84;;;25.97;50.16
72336;BME280;65062;48.446;8.834;2023-07-28T14:11:30;97082.84;;;26.14;45.87
72336;BME280;65062;48.446;8.834;2023-07-28T14:14:31;97083.16;;;27.13;45.88
72336;BME280;65062;48.446;8.834;2023-07-28T14:17:31;97071.19;;;27.68;43.84
72336;BME280;65062;48.446;8.834;2023-07-28T14:20:32;97078.50;;;28.11;43.80
72336;BME280;65062;48.446;8.834;2023-07-28T14:23:32;97090.28;;;28.24;43.47
72336;BME280;65062;48.446;8.834;2023-07-28T14:26:32;97097.47;;;28.59;43.08
72336;BME280;65062;48.446;8.834;2023-07-28T14:29:33;97091.22;;;30.73;38.21
72336;BME280;65062;48.446;8.834;2023-07-28T14:32:33;97093.88;;;32.87;35.14
72336;BME280;65062;48.446;8.834;2023-07-28T14:35:33;97096.34;;;32.03;35.66
72336;BME280;65062;48.446;8.834;2023-07-28T14:38:34;97098.94;;;31.29;36.86
72336;BME280;65062;48.446;8.834;2023-07-28T14:41:35;97099.88;;;31.25;36.51
72336;BME280;65062;48.446;8.834;2023-07-28T14:44:36;97107.84;;;29.69;41.01
72336;BME280;65062;48.446;8.834;2023-07-28T14:47:36;97100.28;;;28.76;43.16
72336;BME280;65062;48.446;8.834;2023-07-28T14:50:36;97106.09;;;27.81;45.77
72336;BME280;65062;48.446;8.834;2023-07-28T14:53:38;97107.25;;;27.67;47.29
72336;BME280;65062;48.446;8.834;2023-07-28T14:56:40;97108.13;;;26.86;47.10
72336;BME280;65062;48.446;8.834;2023-07-28T14:59:40;97110.66;;;26.50;49.67
72336;BME280;65062;48.446;8.834;2023-07-28T15:02:40;97113.03;;;25.88;50.68
72336;BME280;65062;48.446;8.834;2023-07-28T15:05:41;97106.81;;;25.37;52.69
72336;BME280;65062;48.446;8.834;2023-07-28T15:08:41;97110.91;;;24.82;51.86
72336;BME280;65062;48.446;8.834;2023-07-28T15:11:41;97115.38;;;24.34;55.00
72336;BME280;65062;48.446;8.834;2023-07-28T15:14:42;97114.66;;;23.90;56.67
72336;BME280;65062;48.446;8.834;2023-07-28T15:17:42;97121.88;;;23.95;56.88
72336;BME280;65062;48.446;8.834;2023-07-28T15:20:43;97130.50;;;23.82;57.55
72336;BME280;65062;48.446;8.834;2023-07-28T15:23:45;97125.31;;;23.52;57.68
72336;BME280;65062;48.446;8.834;2023-07-28T15:26:46;97127.50;;;23.45;58.34
72336;BME280;65062;48.446;8.834;2023-07-28T15:29:49;97124.41;;;23.28;59.04
72336;BME280;65062;48.446;8.834;2023-07-28T15:32:50;97125.44;;;23.27;59.32
72336;BME280;65062;48.446;8.834;2023-07-28T15:35:50;97132.03;;;23.44;59.87
72336;BME280;65062;48.446;8.834;2023-07-28T15:38:51;97125.50;;;23.65;59.76
72336;BME280;65062;48.446;8.834;2023-07-28T15:41:51;97136.28;;;23.50;58.99
72336;BME280;65062;48.446;8.834;2023-07-28T15:44:52;97133.38;;;23.47;60.21
72336;BME280;65062;48.446;8.834;2023-07-28T15:47:55;97136.41;;;23.30;59.35
72336;BME280;65062;48.446;8.834;2023-07-28T15:50:55;97127.38;;;23.16;61.08
72336;BME280;65062;48.446;8.834;2023-07-28T15:53:56;97128.69;;;23.19;62.08
72336;BME280;65062;48.446;8.834;2023-07-28T15:56:56;97128.41;;;23.20;61.88
72336;BME280;65062;48.446;8.834;2023-07-28T15:59:57;97131.94;;;23.06;61.32
72336;BME280;65062;48.446;8.834;2023-07-28T16:02:57;97118.88;;;23.04;61.81
72336;BME280;65062;48.446;8.834;2023-07-28T16:05:58;97125.78;;;23.05;61.62